createdAt,value
2023-03-11T00:00:36.814Z,10.98
2023-03-11T00:03:23.443Z,10.91
2023-03-11T00:06:09.546Z,10.84
2023-03-11T00:08:55.154Z,10.81
2023-03-11T00:11:41.847Z,10.78
2023-03-11T00:14:28.211Z,10.80
2023-03-11T00:17:14.029Z,10.82
2023-03-11T00:19:59.558Z,10.80
2023-03-11T00:22:45.507Z,10.78
2023-03-11T00:25:32.772Z,10.78
2023-03-11T00:28:18.669Z,10.78
2023-03-11T00:31:05.009Z,10.75
2023-03-11T00:33:50.878Z,10.77
2023-03-11T00:36:36.870Z,10.76
2023-03-11T00:39:23.436Z,10.76
2023-03-11T00:42:09.733Z,10.79
2023-03-11T00:44:55.650Z,10.83
2023-03-11T00:47:41.714Z,10.85
2023-03-11T00:50:30.699Z,10.87
2023-03-11T00:53:16.353Z,10.88
2023-03-11T00:56:10.065Z,10.90
2023-03-11T00:58:57.745Z,10.91
2023-03-11T01:01:43.752Z,10.96
2023-03-11T01:04:29.806Z,10.94
2023-03-11T01:07:15.719Z,10.97
2023-03-11T01:10:02.797Z,11.04
2023-03-11T01:12:49.253Z,11.06
2023-03-11T01:15:37.010Z,11.05
2023-03-11T01:18:23.224Z,11.07
2023-03-11T01:21:09.184Z,11.07
2023-03-11T01:23:55.074Z,11.07
2023-03-11T01:26:40.878Z,11.06
2023-03-11T01:29:26.861Z,11.06
2023-03-11T01:32:14.672Z,11.05
2023-03-11T01:35:00.539Z,11.07
2023-03-11T01:37:47.049Z,11.07
2023-03-11T01:40:36.667Z,11.07
2023-03-11T01:43:45.333Z,11.06
2023-03-11T01:46:41.677Z,11.06
2023-03-11T01:49:27.746Z,11.03
2023-03-11T01:52:14.883Z,11.02
2023-03-11T01:55:07.603Z,10.98
2023-03-11T01:57:54.903Z,11.04
2023-03-11T02:00:42.338Z,11.08
2023-03-11T02:03:35.227Z,11.07
2023-03-11T02:06:23.100Z,11.08
2023-03-11T02:09:09.329Z,11.08
2023-03-11T02:11:56.318Z,11.07
2023-03-11T02:14:54.601Z,11.10
2023-03-11T02:17:42.588Z,11.12
2023-03-11T02:20:52.849Z,11.13
2023-03-11T02:23:56.838Z,11.12
2023-03-11T02:27:10.597Z,11.13
2023-03-11T02:29:56.955Z,11.13
2023-03-11T02:32:44.245Z,11.14
2023-03-11T02:35:31.666Z,11.13
2023-03-11T02:38:18.873Z,11.10
2023-03-11T02:41:06.684Z,11.11
2023-03-11T02:43:52.677Z,11.10
2023-03-11T02:46:41.625Z,11.11
2023-03-11T02:49:30.132Z,11.07
2023-03-11T02:52:17.415Z,11.02
2023-03-11T02:55:03.858Z,11.01
2023-03-11T02:57:50.419Z,11.00
2023-03-11T03:00:36.333Z,10.98
2023-03-11T03:03:26.572Z,10.95
2023-03-11T03:06:12.367Z,10.99
2023-03-11T03:09:03.357Z,10.99
2023-03-11T03:11:49.748Z,11.01
2023-03-11T03:14:35.665Z,11.00
2023-03-11T03:17:21.614Z,10.99
2023-03-11T03:20:13.072Z,10.92
2023-03-11T03:23:02.642Z,10.88
2023-03-11T03:25:50.877Z,10.87
2023-03-11T03:28:36.850Z,10.85
2023-03-11T03:31:23.273Z,10.84
2023-03-11T03:34:09.343Z,10.82
2023-03-11T03:36:56.065Z,10.83
2023-03-11T03:39:42.309Z,10.81
2023-03-11T03:42:30.115Z,10.80
2023-03-11T03:45:16.204Z,10.81
2023-03-11T03:48:01.897Z,10.78
2023-03-11T03:50:51.983Z,10.79
2023-03-11T03:53:38.150Z,10.74
2023-03-11T03:56:25.208Z,10.69
2023-03-11T03:59:10.992Z,10.61
2023-03-11T04:02:00.795Z,10.53
2023-03-11T04:04:48.948Z,10.47
2023-03-11T04:07:36.129Z,10.40
2023-03-11T04:10:23.913Z,10.38
2023-03-11T04:13:10.486Z,10.35
2023-03-11T04:15:56.554Z,10.34
2023-03-11T04:18:42.772Z,10.32
2023-03-11T04:21:28.622Z,10.33
2023-03-11T04:24:15.558Z,10.33
2023-03-11T04:27:01.951Z,10.32
2023-03-11T04:29:48.271Z,10.31
2023-03-11T04:32:34.248Z,10.29
2023-03-11T04:35:20.699Z,10.18
2023-03-11T04:38:07.318Z,10.27
2023-03-11T04:40:54.859Z,10.25
2023-03-11T04:43:40.830Z,10.24
2023-03-11T04:46:26.940Z,10.23
2023-03-11T04:49:13.054Z,10.20
2023-03-11T04:51:58.854Z,10.18
2023-03-11T04:54:45.728Z,10.17
2023-03-11T04:57:31.942Z,10.15
2023-03-11T05:00:23.011Z,10.10
2023-03-11T05:03:10.527Z,10.01
2023-03-11T05:05:57.385Z,9.96
2023-03-11T05:08:44.347Z,9.92
2023-03-11T05:11:31.201Z,9.90
2023-03-11T05:14:17.132Z,9.85
2023-03-11T05:17:03.073Z,9.83
2023-03-11T05:19:49.473Z,9.82
2023-03-11T05:22:41.075Z,9.73
2023-03-11T05:25:27.270Z,9.76
2023-03-11T05:28:13.436Z,9.79
2023-03-11T05:31:09.316Z,9.72
2023-03-11T05:33:56.376Z,9.70
2023-03-11T05:36:42.801Z,9.70
2023-03-11T05:39:28.937Z,9.70
2023-03-11T05:42:14.429Z,9.70
2023-03-11T05:45:00.772Z,9.69
2023-03-11T05:47:47.742Z,9.74
2023-03-11T05:50:34.849Z,9.78
2023-03-11T05:53:23.302Z,9.81
2023-03-11T05:56:08.913Z,9.84
2023-03-11T05:58:57.889Z,9.86
2023-03-11T06:01:45.726Z,9.85
2023-03-11T06:04:32.244Z,9.87
2023-03-11T06:07:20.255Z,9.92
2023-03-11T06:10:08.029Z,9.96
2023-03-11T06:12:54.171Z,9.89
2023-03-11T06:15:46.421Z,10.01
2023-03-11T06:18:32.720Z,10.05
2023-03-11T06:21:24.188Z,10.05
2023-03-11T06:24:10.114Z,10.13
2023-03-11T06:26:57.062Z,10.18
2023-03-11T06:29:47.106Z,10.25
2023-03-11T06:32:35.507Z,10.27
2023-03-11T06:35:21.285Z,10.26
2023-03-11T06:38:07.516Z,10.27
2023-03-11T06:40:53.630Z,10.33
2023-03-11T06:43:39.759Z,10.35
2023-03-11T06:46:26.760Z,10.35
2023-03-11T06:49:14.382Z,10.39
2023-03-11T06:52:01.265Z,10.40
2023-03-11T06:54:47.711Z,10.40
2023-03-11T06:57:35.537Z,10.41
2023-03-11T07:00:24.404Z,10.41
2023-03-11T07:03:15.155Z,10.48
2023-03-11T07:06:01.653Z,10.49
2023-03-11T07:08:49.136Z,10.52
2023-03-11T07:11:35.032Z,10.54
2023-03-11T07:14:28.805Z,10.57
2023-03-11T07:17:15.771Z,10.54
2023-03-11T07:20:07.631Z,10.64
2023-03-11T07:22:53.802Z,10.64
2023-03-11T07:25:39.407Z,10.71
2023-03-11T07:28:26.074Z,10.75
2023-03-11T07:31:18.582Z,10.76
2023-03-11T07:34:06.447Z,10.86
2023-03-11T07:36:52.176Z,10.87
2023-03-11T07:39:37.874Z,10.95
2023-03-11T07:42:23.919Z,11.01
2023-03-11T07:45:12.739Z,11.09
2023-03-11T07:47:58.393Z,11.10
2023-03-11T07:50:44.145Z,11.17
2023-03-11T07:53:30.093Z,11.20
2023-03-11T07:56:17.249Z,11.17
2023-03-11T07:59:04.442Z,11.09
2023-03-11T08:01:53.515Z,11.06
2023-03-11T08:04:39.172Z,11.10
2023-03-11T08:07:25.250Z,11.14
2023-03-11T08:10:12.972Z,11.20
2023-03-11T08:12:58.842Z,11.28
2023-03-11T08:15:44.878Z,11.31
2023-03-11T08:18:31.149Z,11.36
2023-03-11T08:21:20.127Z,11.47
2023-03-11T08:24:07.017Z,11.57
2023-03-11T08:26:53.236Z,11.70
2023-03-11T08:29:38.856Z,11.81
2023-03-11T08:32:24.861Z,11.94
2023-03-11T08:35:11.404Z,12.05
2023-03-11T08:37:57.449Z,12.15
2023-03-11T08:40:43.195Z,12.25
2023-03-11T08:43:29.044Z,12.34
2023-03-11T08:46:22.393Z,12.37
2023-03-11T08:49:08.623Z,12.47
2023-03-11T08:51:54.826Z,12.56
2023-03-11T08:54:40.449Z,12.64
2023-03-11T08:57:28.251Z,12.72
2023-03-11T09:00:14.436Z,12.83
2023-03-11T09:03:00.211Z,13.00
2023-03-11T09:05:46.119Z,13.20
2023-03-11T09:08:32.230Z,13.45
2023-03-11T09:11:18.878Z,13.70
2023-03-11T09:14:05.405Z,13.96
2023-03-11T09:16:51.126Z,14.16
2023-03-11T09:19:37.191Z,14.25
2023-03-11T09:22:23.251Z,14.28
2023-03-11T09:25:10.471Z,14.21
2023-03-11T09:27:57.365Z,14.18
2023-03-11T09:30:43.099Z,14.14
2023-03-11T09:33:28.908Z,14.10
2023-03-11T09:36:17.116Z,14.14
2023-03-11T09:39:04.206Z,14.17
2023-03-11T09:41:58.265Z,14.22
2023-03-11T09:44:53.479Z,14.24
2023-03-11T09:48:03.452Z,14.26
2023-03-11T09:51:11.905Z,14.24
2023-03-11T09:54:04.544Z,14.19
2023-03-11T09:56:51.027Z,14.08
2023-03-11T09:59:37.590Z,14.04
2023-03-11T10:02:26.746Z,13.99
2023-03-11T10:05:27.851Z,13.93
2023-03-11T10:08:24.593Z,13.91
2023-03-11T10:11:25.265Z,13.89
2023-03-11T10:14:35.408Z,13.85
2023-03-11T10:18:17.506Z,13.87
2023-03-11T10:21:30.423Z,13.90
2023-03-11T10:24:59.178Z,14.05
2023-03-11T10:27:44.730Z,14.22
2023-03-11T10:30:43.806Z,14.37
2023-03-11T10:33:37.678Z,14.51
2023-03-11T10:36:26.522Z,14.54
2023-03-11T10:39:12.643Z,14.58
2023-03-11T10:42:06.377Z,14.62
2023-03-11T10:44:52.693Z,14.73
2023-03-11T10:47:38.468Z,14.78
2023-03-11T10:50:24.492Z,14.81
2023-03-11T10:53:16.245Z,14.69
2023-03-11T10:56:02.081Z,14.66
2023-03-11T10:58:51.239Z,14.60
2023-03-11T11:01:37.031Z,14.53
2023-03-11T11:04:37.779Z,14.50
2023-03-11T11:07:34.032Z,14.48
2023-03-11T11:10:25.143Z,14.44
2023-03-11T11:13:12.882Z,14.46
2023-03-11T11:15:58.706Z,14.49
2023-03-11T11:18:49.266Z,14.48
2023-03-11T11:21:52.491Z,14.51
2023-03-11T11:24:51.942Z,14.47
2023-03-11T11:27:37.627Z,14.39
2023-03-11T11:30:24.039Z,14.39
2023-03-11T11:33:30.887Z,14.39
2023-03-11T11:36:19.512Z,14.49
2023-03-11T11:39:18.062Z,14.92
2023-03-11T11:42:04.139Z,15.40
2023-03-11T11:44:57.781Z,15.65
2023-03-11T11:47:47.751Z,16.00
2023-03-11T11:50:42.441Z,16.40
2023-03-11T11:53:38.614Z,16.55
2023-03-11T11:56:25.885Z,16.66
2023-03-11T11:59:19.061Z,16.67
2023-03-11T12:02:05.155Z,16.63
2023-03-11T12:05:19.961Z,16.53
2023-03-11T12:08:23.522Z,16.45
2023-03-11T12:11:15.059Z,16.36
2023-03-11T12:14:29.619Z,16.30
2023-03-11T12:17:16.936Z,16.35
2023-03-11T12:20:21.372Z,16.54
2023-03-11T12:23:17.730Z,16.67
2023-03-11T12:26:17.444Z,16.70
2023-03-11T12:29:10.699Z,16.87
2023-03-11T12:31:57.515Z,16.98
2023-03-11T12:34:43.420Z,17.00
2023-03-11T12:37:30.887Z,16.90
2023-03-11T12:40:44.788Z,16.76
2023-03-11T12:43:33.922Z,16.63
2023-03-11T12:46:21.913Z,16.47
2023-03-11T12:49:07.914Z,16.26
2023-03-11T12:52:01.286Z,16.07
2023-03-11T12:54:49.422Z,15.94
2023-03-11T12:57:37.556Z,15.87
2023-03-11T13:00:28.583Z,15.71
2023-03-11T13:03:33.093Z,15.71
2023-03-11T13:06:37.003Z,15.69
2023-03-11T13:09:22.684Z,15.61
2023-03-11T13:12:40.488Z,15.54
2023-03-11T13:15:29.549Z,15.42
2023-03-11T13:18:19.543Z,15.28
2023-03-11T13:21:28.037Z,15.08
2023-03-11T13:24:20.114Z,14.95
2023-03-11T13:27:14.694Z,14.87
2023-03-11T13:30:00.407Z,14.83
2023-03-11T13:33:01.436Z,14.69
2023-03-11T13:36:09.196Z,14.44
2023-03-11T13:39:19.021Z,14.24
2023-03-11T13:42:14.640Z,14.04
2023-03-11T13:45:00.806Z,13.88
2023-03-11T13:47:49.618Z,13.71
2023-03-11T13:50:37.521Z,13.53
2023-03-11T13:53:31.058Z,13.29
2023-03-11T13:56:19.110Z,13.06
2023-03-11T13:59:29.730Z,12.83
2023-03-11T14:02:20.658Z,12.63
2023-03-11T14:05:07.362Z,12.35
2023-03-11T14:07:53.723Z,12.15
2023-03-11T14:10:52.270Z,11.92
2023-03-11T14:13:42.213Z,11.75
2023-03-11T14:16:44.417Z,11.52
2023-03-11T14:19:30.669Z,11.35
2023-03-11T14:22:16.714Z,11.13
2023-03-11T14:25:08.445Z,10.76
2023-03-11T14:27:54.564Z,10.55
2023-03-11T14:30:40.302Z,10.27
2023-03-11T14:33:26.551Z,10.00
2023-03-11T14:36:14.093Z,9.70
2023-03-11T14:38:59.803Z,9.50
2023-03-11T14:41:45.659Z,9.35
2023-03-11T14:44:37.796Z,9.26
2023-03-11T14:47:35.836Z,9.03
2023-03-11T14:50:24.524Z,8.84
2023-03-11T14:53:15.694Z,8.67
2023-03-11T14:56:13.755Z,8.47
2023-03-11T14:59:12.594Z,8.40
2023-03-11T15:02:11.771Z,8.23
2023-03-11T15:04:59.508Z,8.07
2023-03-11T15:07:49.007Z,7.93
2023-03-11T15:10:36.981Z,7.87
2023-03-11T15:13:24.312Z,7.81
2023-03-11T15:16:35.892Z,7.72
2023-03-11T15:19:28.665Z,7.67
2023-03-11T15:22:41.179Z,7.51
2023-03-11T15:25:29.634Z,7.51
2023-03-11T15:28:28.118Z,7.44
2023-03-11T15:31:20.142Z,7.42
2023-03-11T15:34:18.755Z,7.36
2023-03-11T15:37:21.743Z,7.30
2023-03-11T15:40:19.815Z,7.28
2023-03-11T15:43:29.747Z,7.23
2023-03-11T15:46:15.665Z,7.20
2023-03-11T15:49:01.455Z,7.15
2023-03-11T15:51:47.366Z,7.13
2023-03-11T15:54:33.445Z,7.11
2023-03-11T15:57:27.093Z,7.07
2023-03-11T16:00:22.743Z,6.97
2023-03-11T16:03:08.914Z,7.03
2023-03-11T16:05:54.925Z,7.07
2023-03-11T16:08:40.738Z,7.10
2023-03-11T16:11:27.188Z,7.14
2023-03-11T16:14:18.062Z,7.16
2023-03-11T16:17:03.827Z,7.19
2023-03-11T16:19:49.813Z,7.17
2023-03-11T16:22:37.024Z,7.22
2023-03-11T16:25:27.347Z,7.22
2023-03-11T16:28:14.506Z,7.23
2023-03-11T16:31:00.688Z,7.23
2023-03-11T16:33:46.442Z,7.26
2023-03-11T16:36:32.408Z,7.26
2023-03-11T16:39:18.566Z,7.20
2023-03-11T16:42:04.611Z,7.23
2023-03-11T16:44:50.768Z,7.24
2023-03-11T16:47:36.662Z,7.23
2023-03-11T16:50:24.385Z,7.20
2023-03-11T16:53:10.424Z,7.14
2023-03-11T16:55:56.805Z,7.06
2023-03-11T16:58:42.860Z,7.04
2023-03-11T17:01:29.216Z,6.96
2023-03-11T17:04:15.339Z,6.89
2023-03-11T17:07:01.317Z,6.91
2023-03-11T17:09:48.237Z,6.94
2023-03-11T17:12:34.326Z,6.96
2023-03-11T17:15:20.865Z,6.94
2023-03-11T17:18:06.977Z,6.92
2023-03-11T17:20:54.053Z,6.86
2023-03-11T17:23:40.034Z,6.79
2023-03-11T17:26:27.767Z,6.75
2023-03-11T17:29:13.471Z,6.68
2023-03-11T17:31:59.933Z,6.63
2023-03-11T17:34:45.919Z,6.60
2023-03-11T17:37:31.985Z,6.54
2023-03-11T17:40:18.575Z,6.46
2023-03-11T17:43:04.742Z,6.34
2023-03-11T17:45:51.076Z,6.20
2023-03-11T17:48:37.637Z,6.15
2023-03-11T17:51:25.861Z,6.07
2023-03-11T17:54:11.734Z,6.02
2023-03-11T17:56:58.712Z,5.98
2023-03-11T17:59:44.646Z,5.92
2023-03-11T18:02:30.888Z,5.85
2023-03-11T18:05:18.757Z,5.78
2023-03-11T18:08:04.808Z,5.77
2023-03-11T18:10:53.167Z,5.72
2023-03-11T18:13:40.542Z,5.68
2023-03-11T18:16:28.975Z,5.69
2023-03-11T18:19:15.077Z,5.62
2023-03-11T18:22:01.327Z,5.58
2023-03-11T18:24:47.707Z,5.52
2023-03-11T18:27:33.636Z,5.42
2023-03-11T18:30:19.986Z,5.45
2023-03-11T18:33:05.880Z,5.43
2023-03-11T18:35:51.987Z,5.42
2023-03-11T18:38:38.170Z,5.40
2023-03-11T18:41:26.117Z,5.37
2023-03-11T18:44:12.293Z,5.29
2023-03-11T18:46:58.180Z,5.29
2023-03-11T18:49:44.470Z,5.26
2023-03-11T18:52:30.922Z,5.25
2023-03-11T18:55:16.912Z,5.27
2023-03-11T18:58:03.058Z,5.25
2023-03-11T19:00:49.880Z,5.26
2023-03-11T19:03:38.709Z,5.28
2023-03-11T19:06:28.309Z,5.27
2023-03-11T19:09:14.745Z,5.27
2023-03-11T19:12:00.473Z,5.20
2023-03-11T19:14:46.616Z,5.19
2023-03-11T19:17:32.504Z,5.23
2023-03-11T19:20:19.321Z,5.24
2023-03-11T19:23:06.327Z,5.22
2023-03-11T19:26:02.449Z,5.23
2023-03-11T19:28:49.354Z,5.24
2023-03-11T19:31:35.591Z,5.28
2023-03-11T19:34:22.408Z,5.34
2023-03-11T19:37:08.369Z,5.41
2023-03-11T19:39:54.246Z,5.49
2023-03-11T19:42:40.265Z,5.54
2023-03-11T19:45:31.204Z,5.57
2023-03-11T19:48:17.449Z,5.72
2023-03-11T19:51:06.098Z,5.80
2023-03-11T19:53:52.608Z,5.85
2023-03-11T19:56:40.433Z,5.90
2023-03-11T19:59:26.335Z,5.98
2023-03-11T20:02:13.152Z,6.03
2023-03-11T20:04:58.978Z,6.03
2023-03-11T20:07:47.728Z,6.04
2023-03-11T20:10:38.600Z,5.97
2023-03-11T20:13:24.683Z,6.00
2023-03-11T20:16:16.059Z,5.99
2023-03-11T20:19:05.684Z,5.99
2023-03-11T20:21:51.920Z,5.99
2023-03-11T20:24:38.549Z,5.96
2023-03-11T20:27:24.511Z,5.94
2023-03-11T20:30:11.139Z,5.89
2023-03-11T20:32:57.236Z,5.89
2023-03-11T20:35:43.448Z,5.84
2023-03-11T20:38:29.485Z,5.78
2023-03-11T20:41:15.320Z,5.84
2023-03-11T20:44:00.994Z,5.85
2023-03-11T20:46:47.109Z,5.84
2023-03-11T20:49:33.066Z,5.88
2023-03-11T20:52:18.812Z,5.91
2023-03-11T20:55:05.092Z,5.94
2023-03-11T20:57:51.443Z,5.93
2023-03-11T21:00:37.941Z,5.92
2023-03-11T21:03:23.991Z,5.88
2023-03-11T21:06:24.628Z,5.82
2023-03-11T21:09:16.188Z,5.78
2023-03-11T21:12:02.374Z,5.74
2023-03-11T21:14:48.210Z,5.69
2023-03-11T21:17:34.704Z,5.67
2023-03-11T21:20:20.915Z,5.64
2023-03-11T21:23:08.813Z,5.59
2023-03-11T21:25:59.520Z,5.57
2023-03-11T21:28:47.079Z,5.58
2023-03-11T21:31:33.972Z,5.57
2023-03-11T21:34:20.208Z,5.57
2023-03-11T21:37:07.196Z,5.58
2023-03-11T21:39:53.255Z,5.58
2023-03-11T21:42:39.989Z,5.63
2023-03-11T21:45:26.065Z,5.64
2023-03-11T21:48:13.677Z,5.65
2023-03-11T21:50:59.518Z,5.66
2023-03-11T21:53:45.953Z,5.66
2023-03-11T21:56:31.816Z,5.66
2023-03-11T21:59:17.733Z,5.73
2023-03-11T22:02:03.892Z,5.69
2023-03-11T22:04:50.851Z,5.66
2023-03-11T22:07:37.090Z,5.61
2023-03-11T22:10:23.568Z,5.61
2023-03-11T22:13:10.584Z,5.67
2023-03-11T22:15:58.486Z,5.71
2023-03-11T22:18:45.408Z,5.77
2023-03-11T22:21:31.651Z,5.72
2023-03-11T22:24:17.250Z,5.72
2023-03-11T22:27:03.185Z,5.64
2023-03-11T22:29:49.551Z,5.63
2023-03-11T22:32:35.794Z,5.60
2023-03-11T22:35:21.707Z,5.59
2023-03-11T22:38:07.413Z,5.63
2023-03-11T22:40:53.086Z,5.68
2023-03-11T22:43:39.503Z,5.73
2023-03-11T22:46:26.063Z,5.79
2023-03-11T22:49:11.861Z,5.87
2023-03-11T22:51:57.804Z,5.91
2023-03-11T22:54:43.954Z,5.93
2023-03-11T22:57:38.586Z,5.84
2023-03-11T23:00:24.714Z,5.81
2023-03-11T23:03:11.753Z,5.81
2023-03-11T23:06:01.764Z,5.76
2023-03-11T23:08:48.270Z,5.75
2023-03-11T23:11:34.522Z,5.74
2023-03-11T23:14:27.941Z,5.66
2023-03-11T23:17:19.617Z,5.66
2023-03-11T23:20:06.599Z,5.66
2023-03-11T23:22:52.511Z,5.65
2023-03-11T23:25:40.707Z,5.63
2023-03-11T23:28:26.336Z,5.62
2023-03-11T23:31:14.068Z,5.65
2023-03-11T23:33:59.655Z,5.64
2023-03-11T23:36:45.304Z,5.57
2023-03-11T23:39:31.873Z,5.58
2023-03-11T23:42:25.325Z,5.54
2023-03-11T23:45:12.062Z,5.42
2023-03-11T23:47:58.058Z,5.41
2023-03-11T23:50:49.128Z,5.36
2023-03-11T23:53:34.796Z,5.35
2023-03-11T23:56:20.987Z,5.32
2023-03-11T23:59:06.963Z,5.27
